Impacts TAF Board
For situational awareness. Not to be used for flight planning purposes.
IDs:

KCVG - Cincinnati Intl, KY, US

Issued at 2331 UTC 21 Sep 2021
Updated at 0006 UTC 22 Sep 2021
Potential Impact None Slight Moderate High
Time2352Z 22/01Z 22/02Z 22/03Z 22/04Z 22/05Z 22/06Z 22/07Z 22/08Z 22/09Z 22/10Z 22/11Z 22/12Z 22/13Z>>
Type OBS PRVL PRVL PRVL PRVL PRVL PRVL PRVL PRVL PRVL PRVL PRVL PRVL PRVL
VIS 9 >6 4 4 4 4 4 4 4 4 4 4 4 4
CIG 14 22 15 15 7 7 7 4 4 4 4 4 4 4
Cover OVC BKN BKN BKN OVC OVC OVC OVC OVC OVC OVC OVC OVC OVC
FltCat MVFR MVFR MVFR MVFR IFR IFR IFR LIFR LIFR LIFR LIFR LIFR LIFR LIFR
WX -RA VCSH SHRA BR SHRA BR SHRA BR SHRA BR SHRA BR SHRA BR SHRA BR SHRA BR SHRA BR SHRA BR SHRA BR SHRA BR
WDir 100 170 140 140 130 130 130 310 310 310 310 310 310 310
WSpd 3 5 4 4 6 6 6 10 10 10 10 10 10 10
WGst -- -- -- -- -- -- -- 16 16 16 16 16 16 16
Raw TAF
KCVG 212331Z 2200/2306 17005KT P6SM VCSH FEW014 BKN022
  FM220200 14004KT 4SM SHRA BR BKN015
  FM220400 13006KT 4SM SHRA BR OVC007
  FM220700 31010G16KT 4SM SHRA BR OVC004
  FM221400 30015G21KT 5SM -SHRA BR OVC008
  FM221800 30012KT P6SM VCSH BKN013
  FM230300 27009KT P6SM BKN009


Raw METAR
KCVG 212352Z 10003KT 9SM -RA BKN014 OVC026 22/20 A3001 RMK AO2 RAB2258E05B33 SLP154 BKN V SCT P0000 60000 T02220200 10239 20222 58002
KCVG 212340Z 14004KT 9SM -RA BKN014 OVC026 22/19 A3001 RMK AO2 RAB2258E05B33 VIS LWR NW P0000 T02220194
KCVG 212252Z 00000KT 10SM FEW013 BKN022 OVC029 23/19 A3001 RMK AO2 SLP155 T02280194
KCVG 212152Z 20005KT 10SM FEW014 BKN022 OVC028 23/19 A3002 RMK AO2 SLP158 T02280194

METAR Board
Radar Display
Forecast Discussion
For situational awareness. Not to be used for flight planning purposes.